sensor_id;sensor_type;location;lat;lon;timestamp;pressure;altitude;pressure_sealevel;temperature;humidity
11172;BME280;5642;50.830;12.082;2023-08-20T00:02:18;99748.31;;;27.28;42.80
11172;BME280;5642;50.830;12.082;2023-08-20T00:04:46;99745.03;;;27.24;42.74
11172;BME280;5642;50.830;12.082;2023-08-20T00:07:13;99712.53;;;27.08;42.73
11172;BME280;5642;50.830;12.082;2023-08-20T00:09:39;99738.69;;;27.16;42.82
11172;BME280;5642;50.830;12.082;2023-08-20T00:12:05;99725.09;;;27.17;43.19
11172;BME280;5642;50.830;12.082;2023-08-20T00:14:54;99736.97;;;27.24;43.09
11172;BME280;5642;50.830;12.082;2023-08-20T00:17:21;99719.72;;;27.17;43.08
11172;BME280;5642;50.830;12.082;2023-08-20T00:19:49;99700.19;;;27.15;43.14
11172;BME280;5642;50.830;12.082;2023-08-20T00:22:15;99716.31;;;27.25;43.12
11172;BME280;5642;50.830;12.082;2023-08-20T00:24:43;99712.06;;;27.22;43.07
11172;BME280;5642;50.830;12.082;2023-08-20T00:27:09;99720.69;;;27.26;43.15
11172;BME280;5642;50.830;12.082;2023-08-20T00:29:35;99730.03;;;27.22;43.10
11172;BME280;5642;50.830;12.082;2023-08-20T00:32:01;99732.44;;;27.25;43.26
11172;BME280;5642;50.830;12.082;2023-08-20T00:34:28;99732.59;;;27.23;43.33
11172;BME280;5642;50.830;12.082;2023-08-20T00:36:54;99726.34;;;27.23;43.50
11172;BME280;5642;50.830;12.082;2023-08-20T00:39:20;99731.88;;;27.21;43.46
11172;BME280;5642;50.830;12.082;2023-08-20T00:41:46;99726.81;;;27.18;43.57
11172;BME280;5642;50.830;12.082;2023-08-20T00:44:13;99728.50;;;27.19;43.55
11172;BME280;5642;50.830;12.082;2023-08-20T00:46:39;99721.44;;;27.09;43.64
11172;BME280;5642;50.830;12.082;2023-08-20T00:49:06;99741.69;;;27.13;43.79
11172;BME280;5642;50.830;12.082;2023-08-20T00:51:33;99729.97;;;27.04;43.70
11172;BME280;5642;50.830;12.082;2023-08-20T00:54:01;99734.34;;;27.05;43.86
11172;BME280;5642;50.830;12.082;2023-08-20T00:56:30;99741.44;;;27.06;44.06
11172;BME280;5642;50.830;12.082;2023-08-20T00:58:56;99683.72;;;26.72;44.00
11172;BME280;5642;50.830;12.082;2023-08-20T01:01:23;99738.31;;;27.01;43.95
11172;BME280;5642;50.830;12.082;2023-08-20T01:03:50;99749.06;;;27.01;44.15
11172;BME280;5642;50.830;12.082;2023-08-20T01:09:20;99759.69;;;27.03;44.31
11172;BME280;5642;50.830;12.082;2023-08-20T01:11:56;99749.22;;;26.90;44.29
11172;BME280;5642;50.830;12.082;2023-08-20T01:14:23;99754.03;;;26.96;44.20
11172;BME280;5642;50.830;12.082;2023-08-20T01:16:49;99741.41;;;26.87;44.39
11172;BME280;5642;50.830;12.082;2023-08-20T01:19:22;99762.50;;;27.01;44.22
11172;BME280;5642;50.830;12.082;2023-08-20T01:30:46;99767.44;;;26.86;44.52
11172;BME280;5642;50.830;12.082;2023-08-20T01:33:13;99769.56;;;26.83;44.60
11172;BME280;5642;50.830;12.082;2023-08-20T01:35:40;99772.72;;;26.78;44.77
11172;BME280;5642;50.830;12.082;2023-08-20T01:38:06;99783.72;;;26.75;44.78
11172;BME280;5642;50.830;12.082;2023-08-20T01:40:34;99761.41;;;26.56;44.89
11172;BME280;5642;50.830;12.082;2023-08-20T01:43:00;99791.66;;;26.67;44.70
11172;BME280;5642;50.830;12.082;2023-08-20T01:45:26;99760.13;;;26.50;45.16
11172;BME280;5642;50.830;12.082;2023-08-20T01:47:53;99778.38;;;26.56;44.94
11172;BME280;5642;50.830;12.082;2023-08-20T01:50:19;99787.81;;;26.60;45.23
11172;BME280;5642;50.830;12.082;2023-08-20T01:52:45;99773.25;;;26.53;45.41
11172;BME280;5642;50.830;12.082;2023-08-20T01:55:11;99786.41;;;26.56;45.09
11172;BME280;5642;50.830;12.082;2023-08-20T01:57:40;99781.31;;;26.53;45.30
11172;BME280;5642;50.830;12.082;2023-08-20T02:00:06;99773.69;;;26.48;45.37
11172;BME280;5642;50.830;12.082;2023-08-20T02:02:33;99774.81;;;26.46;45.21
11172;BME280;5642;50.830;12.082;2023-08-20T02:05:01;99784.44;;;26.48;45.50
11172;BME280;5642;50.830;12.082;2023-08-20T02:07:27;99779.34;;;26.45;45.48
11172;BME280;5642;50.830;12.082;2023-08-20T02:09:53;99784.56;;;26.47;45.26
11172;BME280;5642;50.830;12.082;2023-08-20T02:12:23;99788.09;;;26.47;45.57
11172;BME280;5642;50.830;12.082;2023-08-20T02:14:49;99776.34;;;26.39;45.53
11172;BME280;5642;50.830;12.082;2023-08-20T02:17:15;99796.16;;;26.47;45.71
11172;BME280;5642;50.830;12.082;2023-08-20T02:19:41;99790.22;;;26.44;45.79
11172;BME280;5642;50.830;12.082;2023-08-20T02:22:07;99779.47;;;26.34;45.92
11172;BME280;5642;50.830;12.082;2023-08-20T02:24:34;99806.19;;;26.45;45.59
11172;BME280;5642;50.830;12.082;2023-08-20T02:27:00;99800.28;;;26.42;45.85
11172;BME280;5642;50.830;12.082;2023-08-20T02:29:26;99775.81;;;26.35;45.87
11172;BME280;5642;50.830;12.082;2023-08-20T02:31:53;99794.59;;;26.45;46.05
11172;BME280;5642;50.830;12.082;2023-08-20T02:34:19;99776.78;;;26.34;45.87
11172;BME280;5642;50.830;12.082;2023-08-20T02:36:45;99799.41;;;26.51;46.01
11172;BME280;5642;50.830;12.082;2023-08-20T02:39:13;99801.09;;;26.52;46.26
11172;BME280;5642;50.830;12.082;2023-08-20T02:41:39;99785.28;;;26.39;45.97
11172;BME280;5642;50.830;12.082;2023-08-20T02:44:05;99792.63;;;26.47;46.11
11172;BME280;5642;50.830;12.082;2023-08-20T02:46:32;99805.22;;;26.56;46.14
11172;BME280;5642;50.830;12.082;2023-08-20T02:48:58;99805.50;;;26.53;46.19
11172;BME280;5642;50.830;12.082;2023-08-20T02:51:24;99799.72;;;26.48;46.15
11172;BME280;5642;50.830;12.082;2023-08-20T02:53:50;99804.50;;;26.44;46.30
11172;BME280;5642;50.830;12.082;2023-08-20T02:56:16;99804.66;;;26.43;46.28
11172;BME280;5642;50.830;12.082;2023-08-20T02:58:42;99820.91;;;26.51;46.64
11172;BME280;5642;50.830;12.082;2023-08-20T03:01:24;99825.28;;;26.52;46.53
11172;BME280;5642;50.830;12.082;2023-08-20T03:03:50;99835.34;;;26.50;46.53
11172;BME280;5642;50.830;12.082;2023-08-20T03:06:16;99825.84;;;26.46;46.47
11172;BME280;5642;50.830;12.082;2023-08-20T03:08:42;99832.94;;;26.47;46.56
11172;BME280;5642;50.830;12.082;2023-08-20T03:11:08;99833.19;;;26.44;46.63
11172;BME280;5642;50.830;12.082;2023-08-20T03:13:34;99839.56;;;26.43;46.56
11172;BME280;5642;50.830;12.082;2023-08-20T03:16:01;99828.13;;;26.41;46.53
11172;BME280;5642;50.830;12.082;2023-08-20T03:18:27;99820.63;;;26.35;46.56
11172;BME280;5642;50.830;12.082;2023-08-20T03:20:56;99833.50;;;26.41;46.65
11172;BME280;5642;50.830;12.082;2023-08-20T03:23:23;99831.34;;;26.35;46.97
11172;BME280;5642;50.830;12.082;2023-08-20T03:25:49;99842.78;;;26.37;46.88
11172;BME280;5642;50.830;12.082;2023-08-20T03:28:18;99844.50;;;26.38;46.95
11172;BME280;5642;50.830;12.082;2023-08-20T03:30:45;99848.16;;;26.37;46.92
11172;BME280;5642;50.830;12.082;2023-08-20T03:33:11;99834.00;;;26.25;47.23
11172;BME280;5642;50.830;12.082;2023-08-20T03:35:36;99847.31;;;26.36;46.90
11172;BME280;5642;50.830;12.082;2023-08-20T03:38:03;99849.19;;;26.36;46.76
11172;BME280;5642;50.830;12.082;2023-08-20T03:40:30;99840.66;;;26.31;47.21
11172;BME280;5642;50.830;12.082;2023-08-20T03:42:58;99821.97;;;26.20;47.17
11172;BME280;5642;50.830;12.082;2023-08-20T03:45:26;99856.38;;;26.35;47.08
11172;BME280;5642;50.830;12.082;2023-08-20T03:47:52;99844.06;;;26.33;47.35
11172;BME280;5642;50.830;12.082;2023-08-20T03:50:18;99858.47;;;26.32;47.33
11172;BME280;5642;50.830;12.082;2023-08-20T03:52:44;99844.28;;;26.20;47.07
11172;BME280;5642;50.830;12.082;2023-08-20T03:55:10;99864.69;;;26.32;47.25
11172;BME280;5642;50.830;12.082;2023-08-20T03:57:37;99862.88;;;26.33;47.20
11172;BME280;5642;50.830;12.082;2023-08-20T04:00:03;99865.28;;;26.36;47.22
11172;BME280;5642;50.830;12.082;2023-08-20T04:02:30;99867.56;;;26.40;47.26
11172;BME280;5642;50.830;12.082;2023-08-20T04:04:57;99873.47;;;26.44;47.11
11172;BME280;5642;50.830;12.082;2023-08-20T04:07:23;99871.25;;;26.49;47.36
11172;BME280;5642;50.830;12.082;2023-08-20T04:09:49;99868.41;;;26.50;47.12
11172;BME280;5642;50.830;12.082;2023-08-20T04:12:16;99852.72;;;26.46;47.16
11172;BME280;5642;50.830;12.082;2023-08-20T04:14:42;99853.56;;;26.46;47.25
11172;BME280;5642;50.830;12.082;2023-08-20T04:17:10;99869.88;;;26.64;47.21
11172;BME280;5642;50.830;12.082;2023-08-20T04:19:37;99873.25;;;26.66;47.31
11172;BME280;5642;50.830;12.082;2023-08-20T04:22:04;99860.66;;;26.57;47.27
11172;BME280;5642;50.830;12.082;2023-08-20T04:24:30;99875.38;;;26.72;47.39
11172;BME280;5642;50.830;12.082;2023-08-20T04:26:56;99875.81;;;26.77;47.26
11172;BME280;5642;50.830;12.082;2023-08-20T04:29:22;99876.38;;;26.81;47.36
11172;BME280;5642;50.830;12.082;2023-08-20T04:31:48;99877.94;;;26.83;47.31
11172;BME280;5642;50.830;12.082;2023-08-20T04:34:15;99883.75;;;26.88;47.34
11172;BME280;5642;50.830;12.082;2023-08-20T04:36:41;99863.53;;;26.84;47.35
11172;BME280;5642;50.830;12.082;2023-08-20T04:39:07;99875.69;;;26.88;47.75
11172;BME280;5642;50.830;12.082;2023-08-20T04:41:34;99886.47;;;26.98;47.35
11172;BME280;5642;50.830;12.082;2023-08-20T04:44:00;99883.50;;;27.01;47.48
11172;BME280;5642;50.830;12.082;2023-08-20T04:46:26;99893.00;;;27.05;47.59
11172;BME280;5642;50.830;12.082;2023-08-20T04:48:54;99875.72;;;26.98;47.57
11172;BME280;5642;50.830;12.082;2023-08-20T04:51:20;99890.72;;;27.10;47.53
11172;BME280;5642;50.830;12.082;2023-08-20T04:53:46;99888.59;;;27.14;47.47
11172;BME280;5642;50.830;12.082;2023-08-20T04:56:13;99892.69;;;27.18;47.56
11172;BME280;5642;50.830;12.082;2023-08-20T04:58:39;99896.38;;;27.17;47.53
11172;BME280;5642;50.830;12.082;2023-08-20T05:01:05;99889.75;;;27.21;47.67
11172;BME280;5642;50.830;12.082;2023-08-20T05:03:32;99891.13;;;27.25;47.54
11172;BME280;5642;50.830;12.082;2023-08-20T05:05:58;99879.97;;;27.20;47.51
11172;BME280;5642;50.830;12.082;2023-08-20T05:08:24;99896.06;;;27.29;47.72
11172;BME280;5642;50.830;12.082;2023-08-20T05:10:51;99900.19;;;27.34;47.64
11172;BME280;5642;50.830;12.082;2023-08-20T05:13:17;99900.06;;;27.35;47.63
11172;BME280;5642;50.830;12.082;2023-08-20T05:15:46;99901.72;;;27.36;47.64
11172;BME280;5642;50.830;12.082;2023-08-20T05:18:12;99905.28;;;27.37;47.71
11172;BME280;5642;50.830;12.082;2023-08-20T05:20:40;99903.56;;;27.36;47.70
11172;BME280;5642;50.830;12.082;2023-08-20T05:23:06;99904.00;;;27.41;47.82
11172;BME280;5642;50.830;12.082;2023-08-20T05:25:32;99888.13;;;27.47;47.55
11172;BME280;5642;50.830;12.082;2023-08-20T05:27:59;99889.28;;;27.54;47.33
11172;BME280;5642;50.830;12.082;2023-08-20T05:30:27;99882.88;;;27.65;47.46
11172;BME280;5642;50.830;12.082;2023-08-20T05:32:53;99886.28;;;27.67;47.61
11172;BME280;5642;50.830;12.082;2023-08-20T05:35:19;99893.63;;;27.75;47.29
11172;BME280;5642;50.830;12.082;2023-08-20T05:37:45;99886.94;;;27.79;47.34
11172;BME280;5642;50.830;12.082;2023-08-20T05:40:11;99901.69;;;27.84;47.69
11172;BME280;5642;50.830;12.082;2023-08-20T05:42:37;99891.19;;;27.81;47.49
11172;BME280;5642;50.830;12.082;2023-08-20T05:45:03;99910.69;;;27.93;47.35
11172;BME280;5642;50.830;12.082;2023-08-20T05:47:30;99905.63;;;27.90;47.66
11172;BME280;5642;50.830;12.082;2023-08-20T05:49:55;99914.97;;;27.95;47.30
11172;BME280;5642;50.830;12.082;2023-08-20T05:52:22;99905.03;;;27.96;47.44
11172;BME280;5642;50.830;12.082;2023-08-20T05:54:48;99921.06;;;27.97;47.92
11172;BME280;5642;50.830;12.082;2023-08-20T05:57:14;99910.97;;;27.99;47.76
11172;BME280;5642;50.830;12.082;2023-08-20T05:59:41;99921.91;;;27.98;47.71
11172;BME280;5642;50.830;12.082;2023-08-20T06:02:07;99902.69;;;27.83;47.57
11172;BME280;5642;50.830;12.082;2023-08-20T06:04:33;99924.47;;;27.90;47.59
11172;BME280;5642;50.830;12.082;2023-08-20T06:06:59;99912.34;;;27.76;47.62
11172;BME280;5642;50.830;12.082;2023-08-20T06:09:26;99927.16;;;27.90;47.40
11172;BME280;5642;50.830;12.082;2023-08-20T06:11:52;99923.63;;;27.89;47.56
11172;BME280;5642;50.830;12.082;2023-08-20T06:14:18;99924.91;;;27.85;47.58
11172;BME280;5642;50.830;12.082;2023-08-20T06:16:44;99919.69;;;27.84;47.60
11172;BME280;5642;50.830;12.082;2023-08-20T06:19:11;99937.38;;;27.86;47.61
11172;BME280;5642;50.830;12.082;2023-08-20T06:21:37;99926.59;;;27.86;47.87
11172;BME280;5642;50.830;12.082;2023-08-20T06:24:03;99927.72;;;27.93;47.60
11172;BME280;5642;50.830;12.082;2023-08-20T06:26:29;99912.72;;;27.91;47.92
11172;BME280;5642;50.830;12.082;2023-08-20T06:28:55;99940.69;;;28.08;47.78
11172;BME280;5642;50.830;12.082;2023-08-20T06:31:22;99936.59;;;28.13;47.52
11172;BME280;5642;50.830;12.082;2023-08-20T06:33:49;99939.84;;;28.17;47.71
11172;BME280;5642;50.830;12.082;2023-08-20T06:36:15;99939.13;;;28.24;47.39
11172;BME280;5642;50.830;12.082;2023-08-20T06:38:41;99929.47;;;28.22;47.80
11172;BME280;5642;50.830;12.082;2023-08-20T06:41:08;99936.97;;;28.28;47.51
11172;BME280;5642;50.830;12.082;2023-08-20T06:43:34;99949.41;;;28.38;47.50
11172;BME280;5642;50.830;12.082;2023-08-20T06:46:01;99949.66;;;28.45;47.32
11172;BME280;5642;50.830;12.082;2023-08-20T06:48:27;99954.59;;;28.50;47.70
11172;BME280;5642;50.830;12.082;2023-08-20T06:50:54;99912.56;;;28.29;47.28
11172;BME280;5642;50.830;12.082;2023-08-20T06:53:20;99942.56;;;28.44;47.50
11172;BME280;5642;50.830;12.082;2023-08-20T06:55:46;99960.44;;;28.45;47.36
11172;BME280;5642;50.830;12.082;2023-08-20T06:58:14;99954.69;;;28.30;47.52
11172;BME280;5642;50.830;12.082;2023-08-20T07:00:41;99963.38;;;28.24;47.69
11172;BME280;5642;50.830;12.082;2023-08-20T07:03:07;99949.78;;;28.06;48.00
11172;BME280;5642;50.830;12.082;2023-08-20T07:05:33;99971.06;;;28.00;48.01
11172;BME280;5642;50.830;12.082;2023-08-20T07:07:59;99967.69;;;27.88;47.80
11172;BME280;5642;50.830;12.082;2023-08-20T07:10:26;99949.75;;;27.70;47.87
11172;BME280;5642;50.830;12.082;2023-08-20T07:12:52;99976.81;;;27.78;47.94
11172;BME280;5642;50.830;12.082;2023-08-20T07:15:18;99967.44;;;27.72;47.79
11172;BME280;5642;50.830;12.082;2023-08-20T07:17:46;99978.91;;;27.74;48.19
11172;BME280;5642;50.830;12.082;2023-08-20T07:20:12;99977.34;;;27.72;48.05
11172;BME280;5642;50.830;12.082;2023-08-20T07:22:39;99982.91;;;27.70;48.13
11172;BME280;5642;50.830;12.082;2023-08-20T07:25:06;99983.19;;;27.67;48.12
11172;BME280;5642;50.830;12.082;2023-08-20T07:27:32;99979.94;;;27.63;48.26
11172;BME280;5642;50.830;12.082;2023-08-20T07:29:58;99989.41;;;27.67;48.21
11172;BME280;5642;50.830;12.082;2023-08-20T07:32:24;99999.31;;;27.67;48.05
11172;BME280;5642;50.830;12.082;2023-08-20T07:34:50;99986.13;;;27.64;48.03
11172;BME280;5642;50.830;12.082;2023-08-20T07:37:16;99992.53;;;27.63;48.35
11172;BME280;5642;50.830;12.082;2023-08-20T07:39:43;99999.03;;;27.60;48.03
11172;BME280;5642;50.830;12.082;2023-08-20T07:42:09;99994.78;;;27.58;48.19
11172;BME280;5642;50.830;12.082;2023-08-20T07:44:36;100005.56;;;27.58;48.28
11172;BME280;5642;50.830;12.082;2023-08-20T07:47:02;99986.97;;;27.45;48.27
11172;BME280;5642;50.830;12.082;2023-08-20T07:49:29;100002.56;;;27.51;48.21
11172;BME280;5642;50.830;12.082;2023-08-20T07:51:54;100006.72;;;27.55;48.52
11172;BME280;5642;50.830;12.082;2023-08-20T07:54:24;100006.41;;;27.58;48.52
11172;BME280;5642;50.830;12.082;2023-08-20T07:56:52;100006.53;;;27.66;48.46
11172;BME280;5642;50.830;12.082;2023-08-20T07:59:18;99984.47;;;27.63;48.56
11172;BME280;5642;50.830;12.082;2023-08-20T08:01:45;100002.56;;;27.80;48.33
11172;BME280;5642;50.830;12.082;2023-08-20T08:04:11;99981.78;;;27.63;48.45
11172;BME280;5642;50.830;12.082;2023-08-20T08:06:37;100004.72;;;27.67;48.46
11172;BME280;5642;50.830;12.082;2023-08-20T08:09:19;99975.22;;;27.46;48.60
11172;BME280;5642;50.830;12.082;2023-08-20T08:11:47;100008.22;;;27.48;48.44
11172;BME280;5642;50.830;12.082;2023-08-20T08:14:13;100009.94;;;27.49;48.67
11172;BME280;5642;50.830;12.082;2023-08-20T08:16:39;99992.91;;;27.29;48.58
11172;BME280;5642;50.830;12.082;2023-08-20T08:19:06;100007.66;;;27.35;48.38
11172;BME280;5642;50.830;12.082;2023-08-20T08:21:32;100018.41;;;27.45;48.74
11172;BME280;5642;50.830;12.082;2023-08-20T08:23:58;100028.06;;;27.57;48.69
11172;BME280;5642;50.830;12.082;2023-08-20T08:26:25;100019.00;;;27.58;48.77
11172;BME280;5642;50.830;12.082;2023-08-20T08:28:51;100033.75;;;27.73;48.34
11172;BME280;5642;50.830;12.082;2023-08-20T08:31:17;100035.00;;;27.79;48.61
11172;BME280;5642;50.830;12.082;2023-08-20T08:33:43;100022.41;;;27.89;48.51
11172;BME280;5642;50.830;12.082;2023-08-20T08:36:10;100020.56;;;27.99;48.20
11172;BME280;5642;50.830;12.082;2023-08-20T08:38:37;100032.69;;;28.22;48.52
11172;BME280;5642;50.830;12.082;2023-08-20T08:41:10;100038.44;;;28.47;48.29
11172;BME280;5642;50.830;12.082;2023-08-20T08:43:40;100020.13;;;28.50;47.96
11172;BME280;5642;50.830;12.082;2023-08-20T08:46:11;100024.75;;;28.67;47.80
11172;BME280;5642;50.830;12.082;2023-08-20T08:48:40;100037.88;;;28.90;48.02
11172;BME280;5642;50.830;12.082;2023-08-20T08:51:07;100047.41;;;29.11;47.88
11172;BME280;5642;50.830;12.082;2023-08-20T08:53:33;99999.38;;;28.97;47.81
11172;BME280;5642;50.830;12.082;2023-08-20T08:56:02;100018.59;;;29.12;47.70
11172;BME280;5642;50.830;12.082;2023-08-20T08:58:32;100012.34;;;29.11;47.67
11172;BME280;5642;50.830;12.082;2023-08-20T09:01:02;100015.13;;;29.19;47.40
11172;BME280;5642;50.830;12.082;2023-08-20T09:03:29;100028.44;;;29.21;47.83
11172;BME280;5642;50.830;12.082;2023-08-20T09:05:57;100022.97;;;29.31;47.57
11172;BME280;5642;50.830;12.082;2023-08-20T09:08:28;100043.22;;;29.44;47.76
11172;BME280;5642;50.830;12.082;2023-08-20T09:10:56;100040.53;;;29.44;47.54
11172;BME280;5642;50.830;12.082;2023-08-20T09:13:33;100040.38;;;29.46;47.50
11172;BME280;5642;50.830;12.082;2023-08-20T09:16:03;100035.19;;;29.35;47.61
11172;BME280;5642;50.830;12.082;2023-08-20T09:18:30;100040.16;;;29.39;48.03
11172;BME280;5642;50.830;12.082;2023-08-20T09:20:57;100039.28;;;29.39;47.54
11172;BME280;5642;50.830;12.082;2023-08-20T09:23:28;100032.56;;;29.43;47.23
11172;BME280;5642;50.830;12.082;2023-08-20T09:25:54;100032.28;;;29.46;47.29
11172;BME280;5642;50.830;12.082;2023-08-20T09:28:20;100018.00;;;29.53;47.34
11172;BME280;5642;50.830;12.082;2023-08-20T09:30:59;100032.34;;;29.72;46.79
11172;BME280;5642;50.830;12.082;2023-08-20T09:33:27;100037.03;;;29.87;46.96
11172;BME280;5642;50.830;12.082;2023-08-20T09:35:54;100025.19;;;29.98;47.18
11172;BME280;5642;50.830;12.082;2023-08-20T09:38:23;100038.16;;;30.20;47.02
11172;BME280;5642;50.830;12.082;2023-08-20T09:40:52;100032.19;;;30.43;46.77
11172;BME280;5642;50.830;12.082;2023-08-20T09:43:19;100022.03;;;30.62;46.44
11172;BME280;5642;50.830;12.082;2023-08-20T09:45:48;100045.44;;;31.13;46.24
11172;BME280;5642;50.830;12.082;2023-08-20T09:48:19;100039.06;;;31.55;45.91
11172;BME280;5642;50.830;12.082;2023-08-20T09:50:47;100039.47;;;31.76;46.07
11172;BME280;5642;50.830;12.082;2023-08-20T09:53:31;100048.97;;;31.88;45.96
11172;BME280;5642;50.830;12.082;2023-08-20T09:56:09;100040.84;;;31.88;45.88
11172;BME280;5642;50.830;12.082;2023-08-20T09:58:39;100037.44;;;31.86;45.73
11172;BME280;5642;50.830;12.082;2023-08-20T10:01:07;100032.53;;;31.82;45.76
11172;BME280;5642;50.830;12.082;2023-08-20T10:03:33;100031.00;;;31.79;46.01
11172;BME280;5642;50.830;12.082;2023-08-20T10:06:00;100035.91;;;31.84;45.67
11172;BME280;5642;50.830;12.082;2023-08-20T10:08:27;100030.00;;;31.88;45.74
11172;BME280;5642;50.830;12.082;2023-08-20T10:10:53;100032.88;;;31.95;45.61
11172;BME280;5642;50.830;12.082;2023-08-20T10:13:19;100020.66;;;32.07;45.50
11172;BME280;5642;50.830;12.082;2023-08-20T10:15:45;99996.59;;;32.12;45.42
11172;BME280;5642;50.830;12.082;2023-08-20T10:18:13;100007.91;;;32.40;45.14
11172;BME280;5642;50.830;12.082;2023-08-20T10:20:42;99999.88;;;32.63;45.07
11172;BME280;5642;50.830;12.082;2023-08-20T10:23:12;100011.09;;;32.99;44.85
11172;BME280;5642;50.830;12.082;2023-08-20T10:25:42;100009.16;;;33.16;44.32
11172;BME280;5642;50.830;12.082;2023-08-20T10:28:24;100012.94;;;33.37;44.30
11172;BME280;5642;50.830;12.082;2023-08-20T10:31:04;100010.16;;;33.46;44.30
11172;BME280;5642;50.830;12.082;2023-08-20T10:33:55;100012.25;;;33.35;44.30
11172;BME280;5642;50.830;12.082;2023-08-20T10:36:27;100010.81;;;33.25;44.92
11172;BME280;5642;50.830;12.082;2023-08-20T10:39:04;100008.28;;;33.23;44.95
11172;BME280;5642;50.830;12.082;2023-08-20T10:41:34;99994.56;;;33.17;44.36
11172;BME280;5642;50.830;12.082;2023-08-20T10:44:04;99987.91;;;33.19;44.90
11172;BME280;5642;50.830;12.082;2023-08-20T10:46:30;99990.97;;;33.24;44.08
11172;BME280;5642;50.830;12.082;2023-08-20T10:48:59;99995.31;;;33.33;43.97
11172;BME280;5642;50.830;12.082;2023-08-20T10:54:24;99984.00;;;33.90;44.38
11172;BME280;5642;50.830;12.082;2023-08-20T10:59:26;99971.53;;;35.34;44.81
11172;BME280;5642;50.830;12.082;2023-08-20T11:01:55;99964.00;;;36.07;44.85
11172;BME280;5642;50.830;12.082;2023-08-20T11:04:23;99963.25;;;36.95;44.89
11172;BME280;5642;50.830;12.082;2023-08-20T11:06:54;99949.34;;;37.77;44.76
11172;BME280;5642;50.830;12.082;2023-08-20T11:09:27;99951.31;;;38.61;43.90
11172;BME280;5642;50.830;12.082;2023-08-20T11:11:55;99959.31;;;39.45;43.59
11172;BME280;5642;50.830;12.082;2023-08-20T11:14:22;99951.19;;;40.31;43.11
11172;BME280;5642;50.830;12.082;2023-08-20T11:16:48;99960.44;;;41.03;42.49
11172;BME280;5642;50.830;12.082;2023-08-20T11:19:20;99959.22;;;40.99;42.39
11172;BME280;5642;50.830;12.082;2023-08-20T11:21:48;99958.41;;;40.62;42.13
11172;BME280;5642;50.830;12.082;2023-08-20T11:24:18;99964.31;;;40.22;41.49
11172;BME280;5642;50.830;12.082;2023-08-20T11:26:46;99954.91;;;39.93;41.64
11172;BME280;5642;50.830;12.082;2023-08-20T11:29:14;99961.63;;;39.98;41.41
11172;BME280;5642;50.830;12.082;2023-08-20T11:31:45;99960.88;;;40.09;41.41
11172;BME280;5642;50.830;12.082;2023-08-20T11:34:15;99966.38;;;40.34;41.41
11172;BME280;5642;50.830;12.082;2023-08-20T11:36:42;99965.59;;;40.63;41.21
11172;BME280;5642;50.830;12.082;2023-08-20T11:39:12;99961.69;;;40.89;41.53
11172;BME280;5642;50.830;12.082;2023-08-20T11:41:39;99959.66;;;41.14;40.79
11172;BME280;5642;50.830;12.082;2023-08-20T11:44:10;99938.28;;;41.16;40.26
11172;BME280;5642;50.830;12.082;2023-08-20T11:46:44;99958.38;;;41.28;39.68
11172;BME280;5642;50.830;12.082;2023-08-20T11:49:12;99957.75;;;41.15;39.05
11172;BME280;5642;50.830;12.082;2023-08-20T11:51:45;99961.25;;;40.74;38.40
11172;BME280;5642;50.830;12.082;2023-08-20T11:54:15;99965.81;;;40.25;38.37
11172;BME280;5642;50.830;12.082;2023-08-20T11:56:49;99966.94;;;39.68;38.58
11172;BME280;5642;50.830;12.082;2023-08-20T11:59:20;99965.22;;;39.10;38.67
11172;BME280;5642;50.830;12.082;2023-08-20T12:01:58;99963.97;;;38.55;38.83
11172;BME280;5642;50.830;12.082;2023-08-20T12:04:29;99953.56;;;38.06;38.87
11172;BME280;5642;50.830;12.082;2023-08-20T12:07:27;99960.69;;;37.61;38.97
11172;BME280;5642;50.830;12.082;2023-08-20T12:09:55;99955.56;;;37.25;39.13
11172;BME280;5642;50.830;12.082;2023-08-20T12:12:31;99931.75;;;36.93;39.30
11172;BME280;5642;50.830;12.082;2023-08-20T12:14:58;99951.88;;;36.85;39.08
11172;BME280;5642;50.830;12.082;2023-08-20T12:17:25;99945.31;;;36.66;39.12
11172;BME280;5642;50.830;12.082;2023-08-20T12:19:51;99934.84;;;36.35;39.10
11172;BME280;5642;50.830;12.082;2023-08-20T12:22:17;99932.81;;;36.16;39.30
11172;BME280;5642;50.830;12.082;2023-08-20T12:24:45;99940.00;;;35.96;39.29
11172;BME280;5642;50.830;12.082;2023-08-20T12:27:14;99937.56;;;35.73;39.39
11172;BME280;5642;50.830;12.082;2023-08-20T12:29:43;99937.16;;;35.55;39.49
11172;BME280;5642;50.830;12.082;2023-08-20T12:32:10;99936.38;;;35.40;39.63
11172;BME280;5642;50.830;12.082;2023-08-20T12:34:36;99928.56;;;35.30;39.59
11172;BME280;5642;50.830;12.082;2023-08-20T12:37:05;99926.81;;;35.22;39.68
11172;BME280;5642;50.830;12.082;2023-08-20T12:39:34;99933.00;;;35.16;39.39
11172;BME280;5642;50.830;12.082;2023-08-20T12:42:02;99916.50;;;35.03;39.45
11172;BME280;5642;50.830;12.082;2023-08-20T12:44:30;99924.06;;;35.01;39.53
11172;BME280;5642;50.830;12.082;2023-08-20T12:47:03;99918.53;;;34.94;39.53
11172;BME280;5642;50.830;12.082;2023-08-20T12:49:30;99906.06;;;34.85;39.24
11172;BME280;5642;50.830;12.082;2023-08-20T12:51:57;99903.34;;;34.71;39.62
11172;BME280;5642;50.830;12.082;2023-08-20T12:54:24;99897.78;;;34.57;39.81
11172;BME280;5642;50.830;12.082;2023-08-20T12:56:56;99888.22;;;34.47;39.35
11172;BME280;5642;50.830;12.082;2023-08-20T12:59:23;99883.09;;;34.37;39.76
11172;BME280;5642;50.830;12.082;2023-08-20T13:01:53;99892.19;;;34.30;39.34
11172;BME280;5642;50.830;12.082;2023-08-20T13:04:24;99891.59;;;34.19;39.96
11172;BME280;5642;50.830;12.082;2023-08-20T13:06:50;99881.03;;;34.10;39.68
11172;BME280;5642;50.830;12.082;2023-08-20T13:09:19;99884.28;;;34.05;39.76
11172;BME280;5642;50.830;12.082;2023-08-20T13:11:47;99875.19;;;33.98;39.89
11172;BME280;5642;50.830;12.082;2023-08-20T13:14:14;99876.59;;;33.94;39.84
11172;BME280;5642;50.830;12.082;2023-08-20T13:16:41;99877.38;;;33.88;39.63
11172;BME280;5642;50.830;12.082;2023-08-20T13:19:08;99870.16;;;33.80;39.39